createdAt,value
2023-02-11T00:00:44.981Z,101992.00
2023-02-11T00:03:12.305Z,101999.88
2023-02-11T00:05:39.535Z,101989.25
2023-02-11T00:08:08.235Z,102000.34
2023-02-11T00:10:35.464Z,102004.69
2023-02-11T00:13:02.794Z,101995.97
2023-02-11T00:15:30.142Z,101994.81
2023-02-11T00:17:57.381Z,101996.81
2023-02-11T00:20:24.583Z,101980.97
2023-02-11T00:22:51.845Z,101985.72
2023-02-11T00:25:20.467Z,101980.19
2023-02-11T00:27:47.672Z,101983.78
2023-02-11T00:30:14.960Z,101979.81
2023-02-11T00:32:42.373Z,101973.06
2023-02-11T00:35:09.712Z,101978.22
2023-02-11T00:37:37.056Z,101973.88
2023-02-11T00:40:06.953Z,101958.84
2023-02-11T00:42:35.624Z,101941.84
2023-02-11T00:45:03.506Z,101933.50
2023-02-11T00:47:30.764Z,101931.50
2023-02-11T00:49:57.963Z,101917.66
2023-02-11T00:52:27.756Z,101925.19
2023-02-11T00:54:54.998Z,101917.66
2023-02-11T00:57:22.469Z,101917.28
2023-02-11T00:59:51.926Z,101917.66
2023-02-11T01:02:19.296Z,101903.00
2023-02-11T01:04:46.506Z,101922.41
2023-02-11T01:07:13.894Z,101925.97
2023-02-11T01:09:41.106Z,101913.72
2023-02-11T01:12:08.426Z,101935.88
2023-02-11T01:14:35.756Z,101940.22
2023-02-11T01:17:05.958Z,101933.50
2023-02-11T01:19:33.416Z,101944.19
2023-02-11T01:22:00.656Z,101952.91
2023-02-11T01:24:28.036Z,101952.50
2023-02-11T01:26:55.345Z,101960.81
2023-02-11T01:29:25.159Z,101963.56
2023-02-11T01:31:55.112Z,101960.81
2023-02-11T01:34:23.876Z,101962.41
2023-02-11T01:36:51.129Z,101973.94
2023-02-11T01:39:18.451Z,101968.38
2023-02-11T01:41:46.983Z,101966.41
2023-02-11T01:44:29.154Z,101978.66
2023-02-11T01:46:56.449Z,101969.97
2023-02-11T01:49:30.349Z,101973.94
2023-02-11T01:52:03.364Z,101967.22
2023-02-11T01:54:33.951Z,101960.88
2023-02-11T01:57:04.621Z,101954.16
2023-02-11T01:59:35.937Z,101962.09
2023-02-11T02:02:08.034Z,101966.47
2023-02-11T02:04:44.302Z,101966.88
2023-02-11T02:07:19.290Z,101958.94
2023-02-11T02:09:52.901Z,101957.38
2023-02-11T02:12:20.175Z,101951.03
2023-02-11T02:14:47.406Z,101942.31
2023-02-11T02:17:26.528Z,101931.22
2023-02-11T02:20:31.548Z,101917.75
2023-02-11T02:23:17.433Z,101911.44
2023-02-11T02:26:13.751Z,101904.72
2023-02-11T02:29:18.358Z,101909.84
2023-02-11T02:32:33.719Z,101899.56
2023-02-11T02:35:11.628Z,101897.19
2023-02-11T02:37:47.844Z,101898.75
2023-02-11T02:40:20.476Z,101895.59
2023-02-11T02:42:49.210Z,101906.28
2023-02-11T02:45:16.731Z,101900.72
2023-02-11T02:47:44.039Z,101897.22
2023-02-11T02:50:17.206Z,101902.34
2023-02-11T02:52:52.951Z,101896.41
2023-02-11T02:55:45.326Z,101905.88
2023-02-11T02:58:39.958Z,101888.50
2023-02-11T03:01:16.407Z,101878.16
2023-02-11T03:03:50.760Z,101873.44
2023-02-11T03:06:25.534Z,101879.75
2023-02-11T03:08:57.088Z,101881.34
2023-02-11T03:11:25.803Z,101884.09
2023-02-11T03:13:55.181Z,101893.22
2023-02-11T03:16:26.892Z,101896.38
2023-02-11T03:19:02.945Z,101899.56
2023-02-11T03:21:33.460Z,101890.06
2023-02-11T03:24:05.807Z,101887.69
2023-02-11T03:26:38.792Z,101887.69
2023-02-11T03:29:14.370Z,101885.31
2023-02-11T03:31:51.086Z,101905.91
2023-02-11T03:34:23.414Z,101888.50
2023-02-11T03:36:57.064Z,101898.38
2023-02-11T03:39:29.437Z,101897.59
2023-02-11T03:41:59.978Z,101907.91
2023-02-11T03:44:32.670Z,101902.75
2023-02-11T03:47:02.833Z,101911.44
2023-02-11T03:49:33.177Z,101900.78
2023-02-11T03:52:03.332Z,101912.25
2023-02-11T03:54:31.546Z,101896.44
2023-02-11T03:57:01.522Z,101898.81
2023-02-11T03:59:29.462Z,101903.53
2023-02-11T04:01:56.967Z,101908.31
2023-02-11T04:04:24.170Z,101924.94
2023-02-11T04:06:51.526Z,101917.81
2023-02-11T04:09:20.088Z,101921.81
2023-02-11T04:11:47.342Z,101907.53
2023-02-11T04:14:14.579Z,101922.59
2023-02-11T04:16:41.918Z,101917.84
2023-02-11T04:19:09.151Z,101943.19
2023-02-11T04:21:36.451Z,101929.31
2023-02-11T04:24:04.133Z,101926.16
2023-02-11T04:26:33.280Z,101938.06
2023-02-11T04:29:00.587Z,101935.28
2023-02-11T04:31:27.968Z,101947.53
2023-02-11T04:33:55.991Z,101935.31
2023-02-11T04:36:23.305Z,101944.00
2023-02-11T04:38:50.665Z,101934.09
2023-02-11T04:41:17.973Z,101930.13
2023-02-11T04:43:46.642Z,101937.25
2023-02-11T04:46:13.914Z,101931.31
2023-02-11T04:48:41.177Z,101917.84
2023-02-11T04:51:09.133Z,101935.28
2023-02-11T04:53:36.332Z,101943.63
2023-02-11T04:56:03.939Z,101942.41
2023-02-11T04:58:31.281Z,101947.19
2023-02-11T05:01:07.268Z,101946.38
2023-02-11T05:03:35.343Z,101944.38
2023-02-11T05:06:02.708Z,101941.22
2023-02-11T05:08:30.196Z,101942.81
2023-02-11T05:10:57.630Z,101941.22
2023-02-11T05:13:24.925Z,101939.63
2023-02-11T05:15:52.466Z,101924.19
2023-02-11T05:18:21.598Z,101941.59
2023-02-11T05:20:49.008Z,101950.75
2023-02-11T05:23:16.256Z,101938.44
2023-02-11T05:25:43.565Z,101937.28
2023-02-11T05:28:10.791Z,101947.56
2023-02-11T05:30:38.190Z,101954.72
2023-02-11T05:33:05.473Z,101948.78
2023-02-11T05:35:34.003Z,101956.72
2023-02-11T05:38:01.217Z,101956.72
2023-02-11T05:40:28.489Z,101963.44
2023-02-11T05:42:55.768Z,101964.22
2023-02-11T05:45:22.986Z,101967.78
2023-02-11T05:47:50.234Z,101965.41
2023-02-11T05:50:17.526Z,101971.75
2023-02-11T05:52:46.150Z,101970.13
2023-02-11T05:55:13.733Z,101968.97
2023-02-11T05:57:41.183Z,101965.38
2023-02-11T06:00:10.317Z,101976.47
2023-02-11T06:02:40.540Z,101974.84
2023-02-11T06:05:08.559Z,101986.75
2023-02-11T06:07:35.939Z,101986.34
2023-02-11T06:10:05.326Z,101995.47
2023-02-11T06:12:32.631Z,101998.63
2023-02-11T06:14:59.822Z,101999.03
2023-02-11T06:17:27.088Z,102003.00
2023-02-11T06:19:54.300Z,102018.88
2023-02-11T06:22:21.540Z,102006.16
2023-02-11T06:25:00.798Z,102020.03
2023-02-11T06:27:30.429Z,102011.31
2023-02-11T06:29:57.770Z,102016.06
2023-02-11T06:35:14.374Z,102018.03
2023-02-11T06:37:42.595Z,102019.63
2023-02-11T06:40:10.296Z,102031.47
2023-02-11T06:42:39.537Z,102031.09
2023-02-11T06:45:07.915Z,102048.13
2023-02-11T06:47:35.093Z,102043.78
2023-02-11T06:50:02.484Z,102029.53
2023-02-11T06:52:29.884Z,102046.19
2023-02-11T06:54:57.076Z,102049.72
2023-02-11T06:57:24.384Z,102030.31
2023-02-11T06:59:53.028Z,102024.78
2023-02-11T07:02:21.130Z,102027.16
2023-02-11T07:04:48.826Z,102029.16
2023-02-11T07:07:16.071Z,102026.78
2023-02-11T07:09:43.571Z,102027.53
2023-02-11T07:12:10.801Z,102022.41
2023-02-11T07:14:38.420Z,102016.88
2023-02-11T07:17:07.010Z,102020.84
2023-02-11T07:19:34.331Z,102016.50
2023-02-11T07:22:01.592Z,102020.91
2023-02-11T07:24:28.868Z,102012.19
2023-02-11T07:26:56.275Z,102014.19
2023-02-11T07:29:23.642Z,102014.59
2023-02-11T07:31:51.015Z,102015.41
2023-02-11T07:34:19.758Z,102015.41
2023-02-11T07:36:47.042Z,102011.44
2023-02-11T07:39:14.551Z,102014.22
2023-02-11T07:41:41.846Z,101999.56
2023-02-11T07:44:09.474Z,101976.19
2023-02-11T07:46:36.817Z,101990.06
2023-02-11T07:49:04.207Z,101985.28
2023-02-11T07:51:32.756Z,101982.13
2023-02-11T07:54:00.256Z,101986.09
2023-02-11T07:56:28.656Z,101993.22
2023-02-11T07:58:59.017Z,101979.75
2023-02-11T08:01:27.187Z,101979.34
2023-02-11T08:03:55.665Z,101975.81
2023-02-11T08:06:25.676Z,101964.69
2023-02-11T08:08:54.436Z,101963.09
2023-02-11T08:11:24.149Z,101959.16
2023-02-11T08:13:52.470Z,101958.75
2023-02-11T08:16:21.990Z,101945.66
2023-02-11T08:18:50.646Z,101966.28
2023-02-11T08:21:18.909Z,101980.56
2023-02-11T08:23:46.367Z,101959.94
2023-02-11T08:26:18.056Z,101971.44
2023-02-11T08:28:47.509Z,101970.25
2023-02-11T08:31:16.744Z,101972.63
2023-02-11T08:33:44.574Z,101976.59
2023-02-11T08:36:13.554Z,101978.97
2023-02-11T08:38:40.862Z,101985.31
2023-02-11T08:41:08.328Z,101988.50
2023-02-11T08:43:37.591Z,101980.16
2023-02-11T08:46:05.153Z,101984.53
2023-02-11T08:48:32.490Z,101988.13
2023-02-11T08:50:59.869Z,101972.69
2023-02-11T08:53:27.199Z,101975.78
2023-02-11T08:55:55.595Z,101969.47
2023-02-11T08:58:23.438Z,101972.63
2023-02-11T09:00:52.678Z,101965.47
2023-02-11T09:03:20.205Z,101971.44
2023-02-11T09:05:49.067Z,101978.19
2023-02-11T09:08:16.964Z,101991.69
2023-02-11T09:10:44.465Z,101992.47
2023-02-11T09:13:12.051Z,101990.06
2023-02-11T09:15:39.511Z,101990.06
2023-02-11T09:18:08.282Z,102000.41
2023-02-11T09:20:35.578Z,102016.28
2023-02-11T09:23:02.904Z,102020.22
2023-02-11T09:25:30.109Z,102018.66
2023-02-11T09:27:57.430Z,102027.38
2023-02-11T09:30:24.724Z,102041.66
2023-02-11T09:32:52.010Z,102059.47
2023-02-11T09:35:20.808Z,102066.25
2023-02-11T09:37:48.154Z,102075.38
2023-02-11T09:40:16.238Z,102090.03
2023-02-11T09:42:50.671Z,102098.78
2023-02-11T09:45:20.385Z,102102.34
2023-02-11T09:47:55.386Z,102102.38
2023-02-11T09:50:29.172Z,102117.06
2023-02-11T09:53:01.052Z,102113.88
2023-02-11T09:55:31.697Z,102136.47
2023-02-11T09:57:58.942Z,102136.16
2023-02-11T10:00:30.912Z,102144.81
2023-02-11T10:03:28.332Z,102140.13
2023-02-11T10:06:19.640Z,102129.41
2023-02-11T10:08:59.550Z,102125.81
2023-02-11T10:11:34.350Z,102130.59
2023-02-11T10:14:13.391Z,102133.00
2023-02-11T10:16:55.585Z,102132.19
2023-02-11T10:19:36.537Z,102132.19
2023-02-11T10:22:12.158Z,102122.66
2023-02-11T10:24:53.903Z,102125.44
2023-02-11T10:27:30.992Z,102115.53
2023-02-11T10:30:04.008Z,102128.19
2023-02-11T10:32:38.766Z,102137.72
2023-02-11T10:35:14.618Z,102164.69
2023-02-11T10:37:44.630Z,102182.16
2023-02-11T10:40:17.325Z,102200.03
2023-02-11T10:42:47.846Z,102215.50
2023-02-11T10:45:22.425Z,102227.41
2023-02-11T10:47:49.735Z,102217.88
2023-02-11T10:50:25.697Z,102210.75
2023-02-11T10:53:12.376Z,102223.84
2023-02-11T10:55:48.599Z,102240.16
2023-02-11T10:58:24.967Z,102260.84
2023-02-11T11:00:55.086Z,102263.22
2023-02-11T11:03:25.284Z,102268.78
2023-02-11T11:05:57.300Z,102256.06
2023-02-11T11:08:40.498Z,102224.34
2023-02-11T11:11:10.169Z,102185.44
2023-02-11T11:13:38.613Z,102178.28
2023-02-11T11:16:24.976Z,102157.63
2023-02-11T11:18:54.423Z,102114.75
2023-02-11T11:21:24.155Z,102104.44
2023-02-11T11:23:56.547Z,102080.16
2023-02-11T11:26:25.586Z,102079.78
2023-02-11T11:28:58.904Z,102076.22
2023-02-11T11:31:30.399Z,102063.09
2023-02-11T11:34:00.440Z,102063.91
2023-02-11T11:36:36.507Z,102050.41
2023-02-11T11:39:20.280Z,102051.63
2023-02-11T11:41:56.726Z,102035.31
2023-02-11T11:44:30.988Z,102027.78
2023-02-11T11:47:26.459Z,102014.66
2023-02-11T11:50:26.537Z,102001.19
2023-02-11T11:52:59.724Z,101998.81
2023-02-11T11:55:35.074Z,102007.50
2023-02-11T11:58:02.417Z,102008.28
2023-02-11T12:00:36.190Z,102012.66
2023-02-11T12:03:57.849Z,101997.56
2023-02-11T12:06:39.324Z,101985.22
2023-02-11T12:09:18.173Z,101980.06
2023-02-11T12:12:01.954Z,101982.03
2023-02-11T12:14:38.534Z,101957.38
2023-02-11T12:17:18.722Z,101949.38
2023-02-11T12:19:59.613Z,101941.41
2023-02-11T12:22:41.513Z,101935.81
2023-02-11T12:25:23.668Z,101924.19
2023-02-11T12:28:01.388Z,101903.91
2023-02-11T12:30:49.793Z,101907.06
2023-02-11T12:33:31.494Z,101903.47
2023-02-11T12:36:05.863Z,101907.47
2023-02-11T12:38:47.058Z,101895.00
2023-02-11T12:41:25.055Z,101886.69
2023-02-11T12:43:54.025Z,101887.06
2023-02-11T12:46:37.592Z,101880.69
2023-02-11T12:49:31.535Z,101877.47
2023-02-11T12:52:09.249Z,101878.28
2023-02-11T12:54:42.243Z,101871.50
2023-02-11T12:57:17.937Z,101871.88
2023-02-11T12:59:57.183Z,101876.59
2023-02-11T13:02:33.964Z,101885.06
2023-02-11T13:05:05.378Z,101879.06
2023-02-11T13:07:38.984Z,101876.75
2023-02-11T13:10:21.668Z,101878.28
2023-02-11T13:12:51.442Z,101887.56
2023-02-11T13:15:20.021Z,101889.13
2023-02-11T13:17:57.305Z,101901.44
2023-02-11T13:20:33.311Z,101893.50
2023-02-11T13:23:10.733Z,101892.31
2023-02-11T13:25:46.413Z,101899.09
2023-02-11T13:28:35.502Z,101896.75
2023-02-11T13:31:04.700Z,101902.31
2023-02-11T13:33:34.552Z,101913.13
2023-02-11T13:36:20.232Z,101917.50
2023-02-11T13:39:19.211Z,101922.34
2023-02-11T13:41:46.801Z,101920.03
2023-02-11T13:44:27.314Z,101929.16
2023-02-11T13:46:58.772Z,101945.06
2023-02-11T13:49:31.735Z,101969.28
2023-02-11T13:52:01.497Z,101974.06
2023-02-11T13:54:33.537Z,101982.81
2023-02-11T13:57:25.320Z,101993.13
2023-02-11T13:59:54.385Z,101993.13
2023-02-11T14:02:31.064Z,102005.06
2023-02-11T14:05:27.556Z,102016.97
2023-02-11T14:08:17.495Z,102010.59
2023-02-11T14:10:52.874Z,102017.72
2023-02-11T14:13:24.176Z,102020.16
2023-02-11T14:16:04.611Z,102034.47
2023-02-11T14:18:56.117Z,102038.44
2023-02-11T14:21:32.041Z,102048.41
2023-02-11T14:24:34.859Z,102051.97
2023-02-11T14:27:07.378Z,102071.41
2023-02-11T14:29:42.071Z,102086.13
2023-02-11T14:32:17.529Z,102097.66
2023-02-11T14:34:55.652Z,102102.81
2023-02-11T14:37:38.039Z,102109.16
2023-02-11T14:40:16.431Z,102118.69
2023-02-11T14:42:44.677Z,102128.63
2023-02-11T14:45:18.632Z,102132.19
2023-02-11T14:47:51.089Z,102127.81
2023-02-11T14:50:24.251Z,102148.09
2023-02-11T14:52:53.200Z,102151.25
2023-02-11T14:55:29.323Z,102159.22
2023-02-11T14:58:12.434Z,102163.19
2023-02-11T15:00:48.662Z,102151.25
2023-02-11T15:03:40.834Z,102150.88
2023-02-11T15:06:17.780Z,102152.47
2023-02-11T15:08:48.614Z,102164.38
2023-02-11T15:11:18.566Z,102178.28
2023-02-11T15:13:46.881Z,102180.28
2023-02-11T15:16:16.340Z,102191.41
2023-02-11T15:18:47.985Z,102206.50
2023-02-11T15:21:22.977Z,102220.81
2023-02-11T15:23:59.514Z,102225.97
2023-02-11T15:26:27.162Z,102243.84
2023-02-11T15:28:54.426Z,102251.41
2023-02-11T15:31:23.756Z,102261.31
2023-02-11T15:33:51.763Z,102269.66
2023-02-11T15:36:22.164Z,102287.94
2023-02-11T15:39:17.104Z,102307.75
2023-02-11T15:41:44.558Z,102325.22
2023-02-11T15:44:27.776Z,102351.44
2023-02-11T15:46:55.440Z,102382.44
2023-02-11T15:49:24.362Z,102415.78
2023-02-11T15:51:55.970Z,102437.19
2023-02-11T15:54:26.485Z,102454.69
2023-02-11T15:56:58.971Z,102480.47
2023-02-11T15:59:29.383Z,102511.44
2023-02-11T16:01:58.727Z,102540.06
2023-02-11T16:04:27.925Z,102598.41
2023-02-11T16:06:57.036Z,102610.34
2023-02-11T16:09:33.363Z,102642.09
2023-02-11T16:12:03.158Z,102686.56
2023-02-11T16:14:33.629Z,102736.19
2023-02-11T16:17:05.150Z,102802.50
2023-02-11T16:19:34.136Z,102870.81
2023-02-11T16:22:08.447Z,102928.75
2023-02-11T16:24:37.522Z,103027.25
2023-02-11T16:27:07.704Z,103108.63
2023-02-11T16:29:36.914Z,103186.13
2023-02-11T16:32:10.045Z,103261.91
2023-02-11T16:34:37.503Z,103322.22
2023-02-11T16:37:06.355Z,103414.81
2023-02-11T16:39:34.032Z,103458.00
2023-02-11T16:42:02.140Z,103512.88
2023-02-11T16:44:29.795Z,103556.19
2023-02-11T16:46:59.402Z,103588.81
2023-02-11T16:49:28.995Z,103631.59
2023-02-11T16:51:59.465Z,103637.16
2023-02-11T16:54:29.447Z,103672.97
2023-02-11T16:56:56.868Z,103700.78
2023-02-11T16:59:24.139Z,103713.50
2023-02-11T17:01:53.040Z,103720.56
2023-02-11T17:04:23.522Z,103732.13
2023-02-11T17:06:50.930Z,103746.41
2023-02-11T17:09:20.762Z,103744.91
2023-02-11T17:11:50.054Z,103765.16
2023-02-11T17:14:17.893Z,103748.47
2023-02-11T17:16:46.758Z,103754.13
2023-02-11T17:19:17.058Z,103746.31
2023-02-11T17:21:45.371Z,103730.38
2023-02-11T17:24:13.194Z,103712.03
2023-02-11T17:26:41.258Z,103694.47
2023-02-11T17:29:14.081Z,103684.25
2023-02-11T17:31:41.444Z,103638.25
2023-02-11T17:34:08.801Z,103599.38
2023-02-11T17:36:36.199Z,103550.06
2023-02-11T17:39:07.705Z,103496.78
2023-02-11T17:41:38.324Z,103433.72
2023-02-11T17:44:06.621Z,103351.97
2023-02-11T17:46:35.796Z,103260.22
2023-02-11T17:49:04.333Z,103179.94
2023-02-11T17:51:33.602Z,103057.59
2023-02-11T17:54:02.770Z,102925.75
2023-02-11T17:56:32.824Z,102814.06
2023-02-11T17:59:00.143Z,102724.75
2023-02-11T18:01:28.071Z,102649.25
2023-02-11T18:03:56.713Z,102596.47
2023-02-11T18:06:24.022Z,102556.28
2023-02-11T18:08:51.303Z,102538.84
2023-02-11T18:11:18.925Z,102519.75
2023-02-11T18:13:46.214Z,102503.84
2023-02-11T18:16:13.468Z,102490.38
2023-02-11T18:18:40.732Z,102494.31
2023-02-11T18:21:13.936Z,102494.69
2023-02-11T18:23:41.880Z,102487.16
2023-02-11T18:26:10.444Z,102494.31
2023-02-11T18:28:38.324Z,102492.69
2023-02-11T18:31:07.548Z,102497.06
2023-02-11T18:33:35.823Z,102502.94
2023-02-11T18:36:05.014Z,102528.31
2023-02-11T18:38:33.802Z,102539.81
2023-02-11T18:41:01.593Z,102567.16
2023-02-11T18:43:28.932Z,102596.13
2023-02-11T18:45:56.191Z,102625.09
2023-02-11T18:48:24.274Z,102650.44
2023-02-11T18:50:51.647Z,102685.72
2023-02-11T18:53:19.092Z,102718.69
2023-02-11T18:55:47.930Z,102727.00
2023-02-11T18:58:15.260Z,102749.19
2023-02-11T19:00:46.006Z,102778.22
2023-02-11T19:03:13.616Z,102806.75
2023-02-11T19:05:41.622Z,102832.91
2023-02-11T19:08:08.939Z,102845.53
2023-02-11T19:10:39.758Z,102864.66
2023-02-11T19:13:08.530Z,102875.78
2023-02-11T19:15:41.061Z,102878.84
2023-02-11T19:18:08.337Z,102885.31
2023-02-11T19:20:35.635Z,102905.13
2023-02-11T19:23:02.832Z,102892.38
2023-02-11T19:25:30.063Z,102906.22
2023-02-11T19:27:57.504Z,102908.22
2023-02-11T19:30:26.127Z,102917.31
2023-02-11T19:32:53.353Z,102933.59
2023-02-11T19:35:20.825Z,102954.94
2023-02-11T19:37:48.033Z,102968.38
2023-02-11T19:40:15.557Z,102984.25
2023-02-11T19:42:42.823Z,103244.09
2023-02-11T19:45:10.322Z,103088.88
2023-02-11T19:47:38.994Z,103060.28
2023-02-11T19:50:07.562Z,103095.13
2023-02-11T19:52:37.287Z,103129.22
2023-02-11T19:55:05.034Z,103185.13
2023-02-11T19:57:32.403Z,103250.31
2023-02-11T19:59:59.603Z,103318.94
2023-02-11T20:02:27.011Z,103386.31
2023-02-11T20:04:55.677Z,103448.66
2023-02-11T20:07:22.947Z,103524.72
2023-02-11T20:09:50.145Z,103613.97
2023-02-11T20:12:17.633Z,103680.72
2023-02-11T20:14:44.874Z,103749.78
2023-02-11T20:17:12.125Z,103793.53
2023-02-11T20:19:39.373Z,103833.78
2023-02-11T20:22:07.937Z,103879.97
2023-02-11T20:24:35.163Z,103914.81
2023-02-11T20:27:02.447Z,103944.22
2023-02-11T20:29:29.622Z,103989.44
2023-02-11T20:31:56.934Z,104006.81
2023-02-11T20:34:24.246Z,104036.69
2023-02-11T20:36:52.068Z,104058.22
2023-02-11T20:39:22.501Z,104088.31
2023-02-11T20:41:50.542Z,104113.31
2023-02-11T20:44:18.019Z,104145.00
2023-02-11T20:46:45.722Z,104172.00
2023-02-11T20:49:14.902Z,104200.91
2023-02-11T20:51:42.612Z,104226.94
2023-02-11T20:54:12.374Z,104259.81
2023-02-11T20:56:41.124Z,104291.31
2023-02-11T20:59:08.422Z,104300.34
2023-02-11T21:01:38.565Z,104336.09
2023-02-11T21:04:08.324Z,104360.75
2023-02-11T21:06:38.351Z,104388.53
2023-02-11T21:09:07.836Z,104414.22
2023-02-11T21:11:35.482Z,104429.88
2023-02-11T21:14:04.113Z,104448.00
2023-02-11T21:16:32.360Z,104463.88
2023-02-11T21:18:59.729Z,104489.47
2023-02-11T21:21:26.946Z,104507.31
2023-02-11T21:23:54.256Z,104527.28
2023-02-11T21:26:22.046Z,104561.72
2023-02-11T21:28:49.329Z,104585.78
2023-02-11T21:31:22.718Z,104592.47
2023-02-11T21:33:51.390Z,104599.00
2023-02-11T21:36:18.953Z,104619.09
2023-02-11T21:38:46.450Z,104646.72
2023-02-11T21:41:13.652Z,104648.03
2023-02-11T21:43:41.126Z,104666.66
2023-02-11T21:46:09.912Z,104679.06
2023-02-11T21:48:38.951Z,104691.50
2023-02-11T21:51:07.892Z,104709.13
2023-02-11T21:53:35.591Z,104715.34
2023-02-11T21:56:05.798Z,104729.75
2023-02-11T21:58:33.173Z,104758.69
2023-02-11T22:01:00.589Z,104756.53
2023-02-11T22:03:28.165Z,104765.34
2023-02-11T22:05:56.970Z,104781.53
2023-02-11T22:08:24.657Z,104785.97
2023-02-11T22:10:51.924Z,104820.91
2023-02-11T22:13:19.180Z,104778.41
2023-02-11T22:15:57.619Z,104792.97
2023-02-11T22:18:25.053Z,104811.28
2023-02-11T22:20:59.624Z,104841.84
2023-02-11T22:23:27.643Z,104852.47
2023-02-11T22:25:55.238Z,104876.66
2023-02-11T22:28:23.428Z,104882.72
2023-02-11T22:30:54.928Z,104883.69
2023-02-11T22:33:22.928Z,104906.38
2023-02-11T22:35:59.641Z,104926.19
2023-02-11T22:38:28.154Z,104924.72
2023-02-11T22:40:55.592Z,104939.56
2023-02-11T22:43:23.228Z,104950.38
2023-02-11T22:45:51.097Z,104965.38
2023-02-11T22:48:20.244Z,104962.59
2023-02-11T22:50:48.656Z,104967.47
2023-02-11T22:53:17.346Z,104995.44
2023-02-11T22:55:44.628Z,105000.03
2023-02-11T22:58:11.964Z,105019.50
2023-02-11T23:00:41.057Z,105039.28
2023-02-11T23:03:08.867Z,105034.16
2023-02-11T23:05:40.056Z,105056.72
2023-02-11T23:08:08.032Z,105067.06
2023-02-11T23:10:37.902Z,105074.38
2023-02-11T23:13:07.455Z,105078.16
2023-02-11T23:15:38.342Z,105092.66
2023-02-11T23:18:06.696Z,105103.91
2023-02-11T23:20:34.410Z,105115.53
2023-02-11T23:23:01.863Z,105131.69
2023-02-11T23:25:29.418Z,105139.53
2023-02-11T23:27:58.112Z,105149.84
2023-02-11T23:30:25.611Z,105164.84
2023-02-11T23:32:52.839Z,105170.09
2023-02-11T23:35:20.099Z,105183.47
2023-02-11T23:37:47.781Z,105185.25
2023-02-11T23:40:15.692Z,105191.50
2023-02-11T23:42:43.053Z,105189.66
2023-02-11T23:45:12.107Z,105204.06
2023-02-11T23:47:39.750Z,105211.09
2023-02-11T23:50:08.519Z,105213.03
2023-02-11T23:52:36.066Z,105221.22
2023-02-11T23:55:03.963Z,105231.00
2023-02-11T23:57:32.321Z,105233.59
2023-02-11T23:59:59.555Z,105248.81
